Time;durP1;ratioP1;P1;durP2;ratioP2;P2;SDS_P1;SDS_P2;PMS_P1;PMS_P2;Temp;Humidity;BMP_temperature;BMP_pressure;BME280_temperature;BME280_humidity;BME280_pressure;Samples;Min_cycle;Max_cycle;Signal;HPM_P1;HPM_P2
2023/12/02 00:01:54;;;;;;;42.08;19.25;;;-0.30;99.90;;;;;;5071982;28;20036;-81
2023/12/02 00:04:20;;;;;;;41.25;19.65;;;-0.30;99.90;;;;;;5071634;28;20132;-81
2023/12/02 00:06:45;;;;;;;39.00;18.40;;;-0.30;99.90;;;;;;5072446;28;20052;-81
2023/12/02 00:09:11;;;;;;;40.30;18.98;;;-0.30;99.90;;;;;;5072232;28;20437;-81
2023/12/02 00:11:37;;;;;;;37.90;17.48;;;-0.30;99.90;;;;;;5072193;28;20121;-81
2023/12/02 00:14:02;;;;;;;37.55;17.60;;;-0.30;99.90;;;;;;5072172;28;20076;-81
2023/12/02 00:16:28;;;;;;;38.13;17.98;;;-0.30;99.90;;;;;;5071981;28;20203;-81
2023/12/02 00:18:54;;;;;;;33.15;16.13;;;-0.30;99.90;;;;;;5071942;28;20135;-81
2023/12/02 00:21:20;;;;;;;35.35;17.67;;;-0.30;99.90;;;;;;5072002;28;20044;-81
2023/12/02 00:23:46;;;;;;;37.30;15.77;;;-0.30;99.90;;;;;;5072052;28;20047;-81
2023/12/02 00:26:11;;;;;;;34.67;15.70;;;-0.30;99.90;;;;;;5072161;28;20093;-81
2023/12/02 00:28:37;;;;;;;40.90;17.63;;;-0.30;99.90;;;;;;5071655;28;20048;-81
2023/12/02 00:31:03;;;;;;;35.78;17.02;;;-0.40;99.90;;;;;;5072092;28;20049;-81
2023/12/02 00:33:29;;;;;;;38.70;18.15;;;-0.40;99.90;;;;;;5071915;28;20076;-81
2023/12/02 00:35:55;;;;;;;35.38;16.90;;;-0.50;99.90;;;;;;5072120;28;20468;-81
2023/12/02 00:38:21;;;;;;;35.90;17.80;;;-0.40;99.90;;;;;;5071798;28;20049;-81
2023/12/02 00:40:47;;;;;;;39.95;17.52;;;-0.40;99.90;;;;;;5071728;28;20178;-81
2023/12/02 00:43:12;;;;;;;36.33;15.90;;;-0.40;99.90;;;;;;5071535;28;20051;-81
2023/12/02 00:45:38;;;;;;;38.15;17.15;;;-0.50;99.90;;;;;;5071686;28;20099;-81
2023/12/02 00:48:04;;;;;;;37.13;16.98;;;-0.50;99.90;;;;;;5071815;28;20087;-81
2023/12/02 00:50:29;;;;;;;38.00;16.95;;;-0.50;99.90;;;;;;5035205;28;20063;-81
2023/12/02 00:52:56;;;;;;;36.90;17.20;;;-0.50;99.90;;;;;;5035459;28;20068;-81
2023/12/02 00:55:22;;;;;;;35.17;15.65;;;-0.50;99.90;;;;;;5035325;28;20126;-81
2023/12/02 00:57:48;;;;;;;39.05;17.58;;;-0.50;99.90;;;;;;5035024;28;20439;-81
2023/12/02 01:00:15;;;;;;;38.30;16.48;;;-0.40;99.90;;;;;;5035060;28;20057;-81
2023/12/02 01:02:41;;;;;;;33.13;15.80;;;-0.50;99.90;;;;;;5035086;28;20045;-81
2023/12/02 01:05:07;;;;;;;32.22;16.15;;;-0.50;99.90;;;;;;5035102;28;20049;-81
2023/12/02 01:07:33;;;;;;;33.13;16.08;;;-0.50;99.90;;;;;;5035235;28;20041;-81
2023/12/02 01:09:59;;;;;;;32.70;14.90;;;-0.50;99.90;;;;;;5034904;28;20542;-81
2023/12/02 01:12:24;;;;;;;33.53;15.70;;;-0.50;99.90;;;;;;5037900;28;20049;-81
2023/12/02 01:14:50;;;;;;;33.15;15.45;;;-0.60;99.90;;;;;;5038309;28;20037;-81
2023/12/02 01:17:16;;;;;;;31.33;14.77;;;-0.50;99.90;;;;;;5038425;28;20583;-81
2023/12/02 01:19:43;;;;;;;31.50;14.40;;;-0.60;99.90;;;;;;5038350;28;20052;-81
2023/12/02 01:22:09;;;;;;;27.92;14.15;;;-0.50;99.90;;;;;;5038352;28;20048;-81
2023/12/02 01:24:35;;;;;;;30.85;15.32;;;-0.60;99.90;;;;;;5038332;28;20048;-81
2023/12/02 01:27:00;;;;;;;31.60;13.68;;;-0.60;99.90;;;;;;5038263;28;20041;-81
2023/12/02 01:29:26;;;;;;;28.85;13.63;;;-0.60;99.90;;;;;;5038232;28;20055;-81
2023/12/02 01:31:51;;;;;;;34.38;15.25;;;-0.60;99.90;;;;;;5038143;28;20049;-81
2023/12/02 01:34:17;;;;;;;31.55;14.68;;;-0.50;99.90;;;;;;5038548;28;20044;-81
2023/12/02 01:36:45;;;;;;;29.27;14.63;;;-0.60;99.90;;;;;;5038132;28;20095;-81
2023/12/02 01:39:12;;;;;;;33.40;15.35;;;-0.60;99.90;;;;;;5037927;28;20072;-81
2023/12/02 01:41:40;;;;;;;34.60;14.82;;;-0.50;99.90;;;;;;5038008;28;20552;-81
2023/12/02 01:44:06;;;;;;;29.75;13.90;;;-0.60;99.90;;;;;;5037835;28;20045;-81
2023/12/02 01:46:32;;;;;;;26.58;13.60;;;-0.50;99.90;;;;;;5038262;28;20049;-81
2023/12/02 01:49:00;;;;;;;31.95;14.85;;;-0.50;99.90;;;;;;5045027;28;20454;-81
2023/12/02 01:51:27;;;;;;;29.88;14.38;;;-0.50;99.90;;;;;;5074330;28;20495;-81
2023/12/02 01:53:53;;;;;;;30.80;14.15;;;-0.40;99.90;;;;;;5074498;28;20048;-81
2023/12/02 01:56:19;;;;;;;30.33;14.85;;;-0.40;99.90;;;;;;5074574;28;20131;-81
2023/12/02 01:58:46;;;;;;;28.77;13.25;;;-0.40;99.90;;;;;;5074526;28;20107;-81
2023/12/02 02:01:12;;;;;;;31.45;14.05;;;-0.40;99.90;;;;;;5057849;28;20084;-81
2023/12/02 02:03:37;;;;;;;31.95;14.13;;;-0.40;99.90;;;;;;5074264;28;20067;-81
2023/12/02 02:06:03;;;;;;;35.78;15.02;;;-0.40;99.90;;;;;;5073442;28;20143;-81
2023/12/02 02:08:29;;;;;;;30.40;14.05;;;-0.40;99.90;;;;;;5074415;28;20055;-81
2023/12/02 02:10:58;;;;;;;33.42;15.90;;;-0.40;99.90;;;;;;5073980;28;20239;-81
2023/12/02 02:13:27;;;;;;;32.22;14.10;;;-0.40;99.90;;;;;;5074036;28;20044;-81
2023/12/02 02:15:53;;;;;;;32.83;16.80;;;-0.40;99.90;;;;;;5074041;28;20071;-81
2023/12/02 02:18:19;;;;;;;35.55;17.58;;;-0.40;99.90;;;;;;5073950;28;20388;-81
2023/12/02 02:20:53;;;;;;;38.05;16.48;;;-0.40;99.90;;;;;;5073720;28;20052;-81
2023/12/02 02:23:20;;;;;;;34.85;16.88;;;-0.40;99.90;;;;;;5073871;28;20044;-81
2023/12/02 02:25:46;;;;;;;35.33;15.57;;;-0.40;99.90;;;;;;5073985;28;20051;-81
2023/12/02 02:28:12;;;;;;;33.45;15.90;;;-0.40;99.90;;;;;;5073662;28;20404;-81
2023/12/02 02:30:37;;;;;;;41.08;17.83;;;-0.30;99.90;;;;;;5073992;28;20029;-81
2023/12/02 02:33:03;;;;;;;37.00;17.65;;;-0.40;99.90;;;;;;5073985;28;20471;-81
2023/12/02 02:35:32;;;;;;;36.90;16.50;;;-0.30;99.90;;;;;;5073735;28;20496;-81
2023/12/02 02:37:58;;;;;;;39.10;17.15;;;-0.30;99.90;;;;;;5073790;28;20052;-81
2023/12/02 02:40:24;;;;;;;42.75;17.55;;;-0.30;99.90;;;;;;5073420;28;20044;-81
2023/12/02 02:42:49;;;;;;;38.92;18.38;;;-0.30;99.90;;;;;;5073410;28;20041;-82
2023/12/02 02:45:15;;;;;;;39.00;19.40;;;-0.30;99.90;;;;;;5073693;28;20090;-81
2023/12/02 02:47:40;;;;;;;40.38;18.02;;;-0.40;99.90;;;;;;5073347;28;20175;-81
2023/12/02 02:50:07;;;;;;;43.45;20.17;;;-0.40;99.90;;;;;;5072992;28;20052;-81
2023/12/02 02:52:33;;;;;;;36.25;17.52;;;-0.40;99.90;;;;;;5056692;28;20067;-81
2023/12/02 02:54:59;;;;;;;42.40;18.95;;;-0.40;99.90;;;;;;5073110;28;20037;-81
2023/12/02 02:57:25;;;;;;;36.17;17.75;;;-0.40;99.90;;;;;;5073213;28;20049;-81
2023/12/02 02:59:51;;;;;;;43.20;19.23;;;-0.50;99.90;;;;;;5073220;28;20127;-81
2023/12/02 03:02:17;;;;;;;42.10;18.00;;;-0.40;99.90;;;;;;5073185;28;20128;-81
2023/12/02 03:04:42;;;;;;;44.55;18.77;;;-0.50;99.90;;;;;;5072869;28;20125;-81
2023/12/02 03:07:08;;;;;;;44.05;18.38;;;-0.40;99.90;;;;;;5072967;28;20048;-81
2023/12/02 03:09:34;;;;;;;43.50;18.52;;;-0.40;99.90;;;;;;5073212;28;20049;-81
2023/12/02 03:12:00;;;;;;;41.83;19.55;;;-0.40;99.90;;;;;;5072878;28;20063;-81
2023/12/02 03:14:25;;;;;;;39.25;18.83;;;-0.40;99.90;;;;;;5072769;28;20044;-82
2023/12/02 03:16:51;;;;;;;37.28;17.25;;;-0.40;99.90;;;;;;5073137;28;20080;-81
2023/12/02 03:19:18;;;;;;;41.22;18.20;;;-0.40;99.90;;;;;;5072640;28;20530;-81
2023/12/02 03:21:44;;;;;;;48.90;19.80;;;-0.40;99.90;;;;;;5072676;28;20048;-81
2023/12/02 03:24:10;;;;;;;39.28;18.92;;;-0.40;99.90;;;;;;5072376;28;20039;-81
2023/12/02 03:26:36;;;;;;;39.58;17.88;;;-0.40;99.90;;;;;;5072740;28;20052;-81
2023/12/02 03:29:03;;;;;;;36.58;17.98;;;-0.40;99.90;;;;;;5072493;28;20044;-81
2023/12/02 03:31:29;;;;;;;43.42;19.88;;;-0.40;99.90;;;;;;5072585;28;20047;-82
2023/12/02 03:33:54;;;;;;;42.42;18.27;;;-0.40;99.90;;;;;;5071809;28;20045;-82
2023/12/02 03:36:20;;;;;;;42.70;18.90;;;-0.40;99.90;;;;;;5072689;28;20040;-81
2023/12/02 03:38:45;;;;;;;42.88;18.08;;;-0.40;99.90;;;;;;5072319;28;20127;-81
2023/12/02 03:41:11;;;;;;;42.45;18.67;;;-0.40;99.90;;;;;;5072669;28;20048;-81
2023/12/02 03:43:36;;;;;;;41.92;17.88;;;-0.40;99.90;;;;;;5072176;28;20503;-81
2023/12/02 03:46:02;;;;;;;41.78;18.45;;;-0.40;99.90;;;;;;5072517;28;20161;-81
2023/12/02 03:48:28;;;;;;;40.88;19.60;;;-0.50;99.90;;;;;;5071993;28;20488;-81
2023/12/02 03:50:54;;;;;;;50.85;21.30;;;-0.50;99.90;;;;;;5072296;28;20056;-81
2023/12/02 03:53:20;;;;;;;42.22;18.63;;;-0.40;99.90;;;;;;5072343;28;20036;-81
2023/12/02 03:55:46;;;;;;;42.08;19.55;;;-0.40;99.90;;;;;;5072534;28;20045;-81
2023/12/02 03:58:11;;;;;;;41.55;18.23;;;-0.40;99.90;;;;;;5072581;28;20102;-81
2023/12/02 04:00:37;;;;;;;48.05;19.42;;;-0.40;99.90;;;;;;5072131;28;20053;-81
2023/12/02 04:03:02;;;;;;;38.75;17.55;;;-0.40;99.90;;;;;;5071942;28;20051;-81
2023/12/02 04:05:28;;;;;;;43.22;17.60;;;-0.40;99.90;;;;;;5072405;28;20379;-81
2023/12/02 04:07:54;;;;;;;43.35;19.20;;;-0.40;99.90;;;;;;5072155;28;20037;-81
2023/12/02 04:10:19;;;;;;;43.65;19.50;;;-0.40;99.90;;;;;;5055770;28;20109;-81
2023/12/02 04:12:47;;;;;;;45.10;20.13;;;-0.30;99.90;;;;;;5055535;28;20058;-81
2023/12/02 04:15:13;;;;;;;40.72;19.20;;;-0.40;99.90;;;;;;5072188;28;20398;-81
2023/12/02 04:17:39;;;;;;;41.92;18.58;;;-0.30;99.90;;;;;;5071913;28;20090;-81
2023/12/02 04:20:08;;;;;;;42.30;18.25;;;-0.40;99.90;;;;;;5071903;28;20048;-81
2023/12/02 04:22:35;;;;;;;41.13;18.33;;;-0.40;99.90;;;;;;5072261;28;20131;-81
2023/12/02 04:25:00;;;;;;;41.28;18.23;;;-0.40;99.90;;;;;;5072245;28;20052;-81
2023/12/02 04:27:26;;;;;;;40.00;19.75;;;-0.40;99.90;;;;;;5071946;28;20368;-81
2023/12/02 04:29:52;;;;;;;40.53;18.52;;;-0.40;99.90;;;;;;5071797;28;20178;-81
2023/12/02 04:32:17;;;;;;;36.05;17.00;;;-0.40;99.90;;;;;;5072214;28;20085;-81
2023/12/02 04:34:43;;;;;;;39.05;17.83;;;-0.40;99.90;;;;;;5073313;28;20056;-81
2023/12/02 04:37:09;;;;;;;37.50;16.58;;;-0.40;99.90;;;;;;5073486;28;20037;-82
2023/12/02 04:39:34;;;;;;;38.20;17.23;;;-0.40;99.90;;;;;;5073207;28;20505;-82
2023/12/02 04:42:00;;;;;;;40.25;18.35;;;-0.40;99.90;;;;;;5071822;28;20507;-81
2023/12/02 04:44:25;;;;;;;42.45;17.08;;;-0.40;99.90;;;;;;5071594;28;20487;-81
2023/12/02 04:46:51;;;;;;;35.22;16.90;;;-0.40;99.90;;;;;;5073812;28;20117;-81
2023/12/02 04:49:17;;;;;;;38.88;16.77;;;-0.40;99.90;;;;;;5075236;28;20175;-82
2023/12/02 04:51:46;;;;;;;37.28;17.20;;;-0.40;99.90;;;;;;5058926;28;20060;-81
2023/12/02 04:54:11;;;;;;;36.88;16.05;;;-0.40;99.90;;;;;;5075487;28;20044;-81
2023/12/02 04:56:37;;;;;;;36.53;16.88;;;-0.40;99.90;;;;;;5075723;28;20040;-82
2023/12/02 04:59:02;;;;;;;35.75;16.52;;;-0.40;99.90;;;;;;5075190;28;20392;-82
2023/12/02 05:01:28;;;;;;;39.05;17.38;;;-0.40;99.90;;;;;;5075222;28;20078;-81
2023/12/02 05:03:54;;;;;;;39.33;17.13;;;-0.40;99.90;;;;;;5088470;28;20044;-81
2023/12/02 05:06:19;;;;;;;38.60;19.42;;;-0.30;99.90;;;;;;5078654;28;20044;-81
2023/12/02 05:08:45;;;;;;;44.65;19.17;;;-0.30;99.90;;;;;;5095353;28;20040;-81
2023/12/02 05:11:19;;;;;;;39.35;19.50;;;-0.30;99.90;;;;;;5095716;28;20051;-81
2023/12/02 05:13:46;;;;;;;42.88;18.63;;;-0.30;99.90;;;;;;5095612;28;20048;-81
2023/12/02 05:16:12;;;;;;;38.42;18.08;;;-0.20;99.90;;;;;;5097313;28;20036;-81
2023/12/02 05:18:40;;;;;;;35.55;16.65;;;-0.30;99.90;;;;;;5095176;28;20430;-81
2023/12/02 05:21:06;;;;;;;36.60;16.77;;;-0.20;99.90;;;;;;5095269;28;20040;-81
2023/12/02 05:23:32;;;;;;;38.25;18.35;;;-0.20;99.90;;;;;;5095559;28;20100;-81
2023/12/02 05:25:57;;;;;;;38.58;16.60;;;-0.20;99.90;;;;;;5094987;28;20447;-81
2023/12/02 05:28:23;;;;;;;35.22;17.05;;;-0.20;99.90;;;;;;5095338;28;20048;-81
2023/12/02 05:30:50;;;;;;;37.42;17.60;;;-0.20;99.90;;;;;;5095310;28;20046;-81
2023/12/02 05:33:17;;;;;;;39.30;17.45;;;-0.20;99.90;;;;;;5078472;28;20052;-81
2023/12/02 05:35:43;;;;;;;34.45;16.35;;;-0.20;99.90;;;;;;5078371;28;20471;-81
2023/12/02 05:38:08;;;;;;;36.67;17.15;;;-0.20;99.90;;;;;;5095299;28;20127;-81
2023/12/02 05:40:34;;;;;;;47.00;21.27;;;-0.20;99.90;;;;;;5094924;28;20044;-81
2023/12/02 05:43:00;;;;;;;39.63;19.10;;;-0.20;99.90;;;;;;5094765;28;20130;-81
2023/12/02 05:45:26;;;;;;;40.45;17.88;;;-0.30;99.90;;;;;;5094812;28;20044;-82
2023/12/02 05:47:51;;;;;;;41.92;19.67;;;-0.30;99.90;;;;;;5094632;28;20062;-82
2023/12/02 05:50:17;;;;;;;38.80;17.30;;;-0.20;99.90;;;;;;5094632;28;20063;-81
2023/12/02 05:52:43;;;;;;;35.92;18.30;;;-0.20;99.90;;;;;;5094647;28;20051;-81
2023/12/02 05:55:09;;;;;;;37.33;18.02;;;-0.20;99.90;;;;;;5094421;28;20048;-81
2023/12/02 05:57:35;;;;;;;33.03;16.10;;;-0.30;99.90;;;;;;5077335;28;20126;-81
2023/12/02 06:00:00;;;;;;;29.63;14.13;;;-0.30;99.90;;;;;;5094474;28;20050;-81
2023/12/02 06:02:26;;;;;;;26.00;11.40;;;-0.20;99.90;;;;;;5094670;28;20040;-81
2023/12/02 06:04:51;;;;;;;20.58;8.82;;;-0.20;99.90;;;;;;5094502;28;20052;-81
2023/12/02 06:07:17;;;;;;;15.88;5.70;;;-0.20;99.90;;;;;;5094364;28;20112;-81
2023/12/02 06:09:43;;;;;;;9.18;4.50;;;-0.10;99.90;;;;;;5094389;28;20609;-81
2023/12/02 06:12:09;;;;;;;11.45;4.50;;;-0.10;99.90;;;;;;5094046;28;20044;-81
2023/12/02 06:14:35;;;;;;;8.50;4.45;;;-0.10;99.90;;;;;;5094630;28;20067;-81
2023/12/02 06:17:00;;;;;;;8.95;4.47;;;0.00;99.90;;;;;;5094456;28;20078;-81
2023/12/02 06:19:26;;;;;;;11.65;5.43;;;0.00;99.90;;;;;;5094036;28;20047;-81
2023/12/02 06:21:52;;;;;;;9.45;5.40;;;0.00;99.90;;;;;;5094240;28;20093;-81
2023/12/02 06:24:17;;;;;;;13.57;5.80;;;0.00;99.90;;;;;;5094102;28;20044;-81
2023/12/02 06:26:43;;;;;;;14.75;7.20;;;0.00;99.90;;;;;;5094127;28;20047;-81
2023/12/02 06:29:09;;;;;;;15.85;6.68;;;0.00;99.90;;;;;;5094050;28;20079;-81
2023/12/02 06:31:35;;;;;;;20.00;10.45;;;0.00;99.90;;;;;;5093912;28;20052;-81
2023/12/02 06:34:01;;;;;;;22.50;11.65;;;0.00;99.90;;;;;;5095135;28;20036;-82
2023/12/02 06:36:26;;;;;;;24.02;10.07;;;-0.10;99.90;;;;;;5094156;28;20040;-82
2023/12/02 06:38:52;;;;;;;16.88;8.23;;;-0.10;99.90;;;;;;5093467;28;20479;-82
2023/12/02 06:41:17;;;;;;;20.45;7.88;;;-0.10;99.90;;;;;;5093864;28;20048;-82
2023/12/02 06:43:43;;;;;;;21.15;8.70;;;-0.10;99.90;;;;;;5093886;28;20566;-82
2023/12/02 06:46:18;;;;;;;17.70;8.52;;;-0.10;99.90;;;;;;5093746;28;20039;-82
2023/12/02 06:48:44;;;;;;;21.08;9.45;;;-0.10;99.90;;;;;;5096902;28;20055;-82
2023/12/02 06:51:13;;;;;;;22.35;10.30;;;-0.10;99.90;;;;;;5096966;28;20060;-82
2023/12/02 06:53:39;;;;;;;26.05;11.02;;;-0.10;99.90;;;;;;5096765;28;20089;-82
2023/12/02 06:56:05;;;;;;;24.88;10.65;;;-0.10;99.90;;;;;;5097068;28;20051;-82
2023/12/02 06:58:31;;;;;;;22.00;10.18;;;-0.10;99.90;;;;;;5097210;28;20122;-82
2023/12/02 07:00:56;;;;;;;24.38;10.63;;;-0.10;99.90;;;;;;5096422;28;20237;-82
2023/12/02 07:03:22;;;;;;;22.88;10.63;;;-0.10;99.90;;;;;;5096755;28;20039;-82
2023/12/02 07:05:48;;;;;;;21.70;10.70;;;-0.10;99.90;;;;;;5096873;28;20521;-82
2023/12/02 07:08:14;;;;;;;21.45;9.75;;;-0.10;99.90;;;;;;5096061;28;20075;-82
2023/12/02 07:10:39;;;;;;;24.40;11.18;;;-0.10;99.90;;;;;;5096571;28;20093;-82
2023/12/02 07:13:05;;;;;;;28.25;12.35;;;-0.10;99.90;;;;;;5097186;28;20517;-82
2023/12/02 07:15:30;;;;;;;26.17;11.82;;;-0.10;99.90;;;;;;5096590;28;20050;-82
2023/12/02 07:17:56;;;;;;;24.48;11.43;;;-0.10;99.90;;;;;;5096404;28;20043;-81
2023/12/02 07:20:24;;;;;;;28.55;12.93;;;-0.10;99.90;;;;;;5096538;28;20036;-82
2023/12/02 07:22:49;;;;;;;28.63;12.32;;;-0.10;99.90;;;;;;5096284;28;20168;-82
2023/12/02 07:25:15;;;;;;;28.08;12.32;;;0.00;99.90;;;;;;5096622;28;20123;-81
2023/12/02 07:27:41;;;;;;;29.00;12.68;;;0.00;99.90;;;;;;5096310;28;20395;-82
2023/12/02 07:30:07;;;;;;;26.10;11.65;;;0.00;99.90;;;;;;5096344;28;20042;-82
2023/12/02 07:32:32;;;;;;;26.77;12.60;;;0.00;99.90;;;;;;5096632;28;20043;-82
2023/12/02 07:34:58;;;;;;;35.55;14.90;;;0.00;99.90;;;;;;5114462;28;20039;-82
2023/12/02 07:37:24;;;;;;;34.45;14.52;;;0.00;99.90;;;;;;5114280;28;20047;-83
2023/12/02 07:39:49;;;;;;;36.83;14.98;;;0.00;99.90;;;;;;5095948;28;20054;-83
2023/12/02 07:42:15;;;;;;;40.13;18.48;;;0.10;99.90;;;;;;5096383;28;20059;-82
2023/12/02 07:44:40;;;;;;;30.98;15.35;;;0.10;99.90;;;;;;5096008;28;20494;-82
2023/12/02 07:47:06;;;;;;;35.33;16.60;;;0.10;99.90;;;;;;5096243;28;20059;-83
2023/12/02 07:49:33;;;;;;;33.65;16.25;;;0.10;99.90;;;;;;5095962;28;20131;-82
2023/12/02 07:52:01;;;;;;;39.40;15.48;;;0.10;99.90;;;;;;5095992;28;20478;-82
2023/12/02 07:54:27;;;;;;;36.47;15.52;;;0.10;99.90;;;;;;5096800;28;20090;-82
2023/12/02 07:56:52;;;;;;;37.28;16.73;;;0.10;99.90;;;;;;5096166;28;20078;-82
2023/12/02 07:59:18;;;;;;;34.15;15.55;;;0.10;99.90;;;;;;5095721;28;20066;-82
2023/12/02 08:01:44;;;;;;;38.28;16.83;;;0.10;99.90;;;;;;5095873;28;20494;-82
2023/12/02 08:04:09;;;;;;;32.28;14.27;;;0.10;99.90;;;;;;5095781;28;20044;-83
2023/12/02 08:06:36;;;;;;;31.23;15.13;;;0.20;99.90;;;;;;5095826;28;20058;-84
2023/12/02 08:09:02;;;;;;;35.50;16.70;;;0.20;99.90;;;;;;5095592;28;20051;-84
2023/12/02 08:11:27;;;;;;;34.80;16.83;;;0.20;99.90;;;;;;5095603;28;20117;-84
2023/12/02 08:13:53;;;;;;;33.17;14.63;;;0.20;99.90;;;;;;5095323;28;20055;-83
2023/12/02 08:16:18;;;;;;;38.17;15.85;;;0.20;99.90;;;;;;5093989;28;20031;-83
2023/12/02 08:18:44;;;;;;;32.60;14.38;;;0.20;99.90;;;;;;5084459;28;20556;-83
2023/12/02 08:21:10;;;;;;;36.05;15.82;;;0.30;99.90;;;;;;5095079;28;20044;-83
2023/12/02 08:23:35;;;;;;;35.22;14.90;;;0.30;99.90;;;;;;5078975;28;20130;-83
2023/12/02 08:26:01;;;;;;;37.22;15.77;;;0.30;99.90;;;;;;5079222;28;20398;-83
2023/12/02 08:28:27;;;;;;;30.25;14.15;;;0.30;99.90;;;;;;5079361;28;20043;-83
2023/12/02 08:30:52;;;;;;;31.77;13.93;;;0.30;99.90;;;;;;5079406;28;20044;-82
2023/12/02 08:33:18;;;;;;;32.15;14.40;;;0.40;99.90;;;;;;5079068;28;20044;-83
2023/12/02 08:35:47;;;;;;;33.22;14.10;;;0.40;99.90;;;;;;5079010;28;20499;-84
2023/12/02 08:38:12;;;;;;;28.98;13.50;;;0.40;99.90;;;;;;5079249;28;20056;-83
2023/12/02 08:40:39;;;;;;;33.08;14.43;;;0.40;99.90;;;;;;5078833;28;20050;-83
2023/12/02 08:43:04;;;;;;;25.55;11.88;;;0.50;99.90;;;;;;5079085;28;20510;-84
2023/12/02 08:45:30;;;;;;;31.70;13.63;;;0.50;99.90;;;;;;5079091;28;20052;-83
2023/12/02 08:47:55;;;;;;;28.83;13.10;;;0.50;99.90;;;;;;5078628;28;20123;-79
2023/12/02 08:50:21;;;;;;;31.08;14.75;;;0.50;99.90;;;;;;5078455;28;20556;-81
2023/12/02 08:52:47;;;;;;;28.90;13.52;;;0.50;99.90;;;;;;5078753;28;20483;-81
2023/12/02 08:55:12;;;;;;;29.52;13.15;;;0.60;99.90;;;;;;5078763;28;20040;-82
2023/12/02 08:57:38;;;;;;;29.50;13.02;;;0.60;99.90;;;;;;5078607;28;20547;-81
2023/12/02 09:00:05;;;;;;;29.27;13.10;;;0.60;99.90;;;;;;5078471;28;20048;-79
2023/12/02 09:02:30;;;;;;;32.63;13.23;;;0.60;99.90;;;;;;5078630;28;20044;-81
2023/12/02 09:04:56;;;;;;;31.05;13.13;;;0.70;99.90;;;;;;5078278;28;20051;-81
2023/12/02 09:07:26;;;;;;;31.35;14.68;;;0.70;99.90;;;;;;5080427;28;20047;-80
2023/12/02 09:09:51;;;;;;;28.00;12.80;;;0.70;99.90;;;;;;5088115;28;20134;-80
2023/12/02 09:12:17;;;;;;;30.83;14.82;;;0.70;99.90;;;;;;5097799;28;20177;-80
2023/12/02 09:14:43;;;;;;;32.60;15.82;;;0.70;99.90;;;;;;5078139;28;20047;-81
2023/12/02 09:17:58;;;;;;;31.25;14.45;;;0.70;99.90;;;;;;5078718;28;20051;-81
2023/12/02 09:20:47;;;;;;;27.95;13.50;;;0.70;99.90;;;;;;5064717;28;20060;-81
2023/12/02 09:23:15;;;;;;;30.15;14.15;;;0.80;99.90;;;;;;5096217;28;20555;-80
2023/12/02 09:25:42;;;;;;;28.73;13.07;;;0.80;99.90;;;;;;5078651;28;20059;-80
2023/12/02 09:28:09;;;;;;;32.55;13.52;;;0.80;99.90;;;;;;5071166;28;20048;-80
2023/12/02 09:30:36;;;;;;;27.88;13.38;;;0.80;99.90;;;;;;5066759;28;20056;-83
2023/12/02 09:33:04;;;;;;;27.63;13.85;;;0.90;99.90;;;;;;5085644;28;20372;-80
2023/12/02 09:35:31;;;;;;;26.92;12.43;;;0.90;99.90;;;;;;5096491;28;20052;-88
2023/12/02 09:38:00;;;;;;;32.10;14.35;;;0.90;99.90;;;;;;5078252;28;20482;-81
2023/12/02 09:40:55;;;;;;;28.58;13.98;;;0.90;99.90;;;;;;5077659;28;20051;-81
2023/12/02 09:43:23;;;;;;;30.63;13.80;;;1.00;99.90;;;;;;5096338;28;20509;-81
2023/12/02 09:46:10;;;;;;;26.88;13.48;;;1.00;99.90;;;;;;5095736;28;20558;-82
2023/12/02 09:49:14;;;;;;;26.95;13.30;;;1.00;99.90;;;;;;5077617;28;20751;-81
2023/12/02 09:51:49;;;;;;;35.38;14.25;;;1.00;99.90;;;;;;5077426;28;20116;-81
2023/12/02 09:54:18;;;;;;;29.75;13.65;;;1.10;99.90;;;;;;5077591;28;20129;-81
2023/12/02 09:56:52;;;;;;;30.83;14.32;;;1.10;99.90;;;;;;5077350;28;20093;-81
2023/12/02 09:59:44;;;;;;;27.80;12.65;;;1.10;99.90;;;;;;5077349;28;20063;-81
2023/12/02 10:02:39;;;;;;;28.43;13.60;;;1.20;99.90;;;;;;5040964;28;20117;-81
2023/12/02 10:05:10;;;;;;;31.50;14.15;;;1.20;99.90;;;;;;5077296;28;20134;-81
2023/12/02 10:07:51;;;;;;;26.48;13.70;;;1.20;99.90;;;;;;5088015;28;20059;-81
2023/12/02 10:10:22;;;;;;;24.77;12.38;;;1.20;99.90;;;;;;5082764;28;20060;-81
2023/12/02 10:13:07;;;;;;;27.27;12.82;;;1.20;99.90;;;;;;5091233;28;20032;-81
2023/12/02 10:15:36;;;;;;;28.58;12.50;;;1.20;99.90;;;;;;5093883;28;20039;-81
2023/12/02 10:18:12;;;;;;;25.70;12.52;;;1.30;99.90;;;;;;5096519;28;20398;-81
2023/12/02 10:20:41;;;;;;;24.27;12.70;;;1.30;99.90;;;;;;5097227;28;20487;-81
2023/12/02 10:23:31;;;;;;;21.85;11.15;;;1.30;99.90;;;;;;5097025;28;20399;-81
2023/12/02 10:26:24;;;;;;;23.25;11.82;;;1.30;99.90;;;;;;5097295;28;20051;-81
2023/12/02 10:29:11;;;;;;;;;;;1.30;99.90;;;;;;5085478;28;20055;-81
2023/12/02 10:31:55;;;;;;;23.45;11.75;;;1.30;99.90;;;;;;5096974;28;19999;-81
2023/12/02 10:34:35;;;;;;;;;;;1.30;99.90;;;;;;5097652;28;20086;-81
2023/12/02 10:37:04;;;;;;;23.08;11.55;;;1.30;99.90;;;;;;5096890;28;19923;-81
2023/12/02 10:39:39;;;;;;;21.85;10.43;;;1.30;99.90;;;;;;5096641;28;20123;-83
2023/12/02 10:42:09;;;;;;;23.63;11.05;;;1.30;99.90;;;;;;5096871;28;20048;-82
2023/12/02 10:44:37;;;;;;;19.92;9.85;;;1.30;99.90;;;;;;5096810;28;20111;-81
2023/12/02 10:47:04;;;;;;;20.40;9.23;;;1.30;99.90;;;;;;5096899;28;20437;-81
2023/12/02 10:49:31;;;;;;;18.20;9.70;;;1.30;99.90;;;;;;5096928;28;20059;-81
2023/12/02 10:52:00;;;;;;;24.65;10.82;;;1.40;99.90;;;;;;5095251;28;20051;-80
2023/12/02 10:54:32;;;;;;;19.95;9.98;;;1.30;99.90;;;;;;5095581;28;20052;-81
2023/12/02 10:57:06;;;;;;;19.88;9.13;;;1.40;99.90;;;;;;5096638;28;20518;-83
2023/12/02 10:59:45;;;;;;;19.20;10.38;;;1.40;99.90;;;;;;5096474;28;20094;-80
2023/12/02 11:02:37;;;;;;;20.02;9.95;;;1.40;99.90;;;;;;5096537;28;20402;-83
2023/12/02 11:05:22;;;;;;;20.77;9.63;;;1.40;99.90;;;;;;5096567;28;20483;-84
2023/12/02 11:07:52;;;;;;;20.35;9.10;;;1.50;99.90;;;;;;5114597;28;20056;-83
2023/12/02 11:10:47;;;;;;;18.08;8.77;;;1.50;99.90;;;;;;5096092;28;20036;-83
2023/12/02 11:13:19;;;;;;;20.65;9.63;;;1.50;99.90;;;;;;5093956;28;20055;-84
2023/12/02 11:16:13;;;;;;;21.17;9.50;;;1.50;99.90;;;;;;5096267;28;20047;-83
2023/12/02 11:19:23;;;;;;;17.85;8.65;;;1.50;99.90;;;;;;5096437;28;20047;-84
2023/12/02 11:21:52;;;;;;;17.38;8.50;;;1.60;99.90;;;;;;5041860;28;20059;-81
2023/12/02 11:24:29;;;;;;;18.08;9.25;;;1.60;99.90;;;;;;5095796;28;20039;-83
2023/12/02 11:26:55;;;;;;;18.35;8.95;;;1.60;99.90;;;;;;5075737;28;20093;-84
2023/12/02 11:29:32;;;;;;;20.15;8.35;;;1.60;99.90;;;;;;5075771;28;20040;-80
2023/12/02 11:32:24;;;;;;;14.93;8.02;;;1.70;99.90;;;;;;5075634;28;20040;-83
2023/12/02 11:35:16;;;;;;;16.17;7.60;;;1.60;99.90;;;;;;5071554;28;20109;-83
2023/12/02 11:38:03;;;;;;;19.00;8.23;;;1.70;99.90;;;;;;5075815;28;20114;-83
2023/12/02 11:40:34;;;;;;;14.48;8.02;;;1.70;99.90;;;;;;5075582;28;20070;-83
2023/12/02 11:43:23;;;;;;;12.15;6.75;;;1.70;99.90;;;;;;5075960;28;20074;-84
2023/12/02 11:45:56;;;;;;;15.82;7.25;;;1.70;99.90;;;;;;5075383;28;20043;-84
2023/12/02 11:48:41;;;;;;;11.52;6.57;;;1.70;99.90;;;;;;5075188;28;20395;-85
2023/12/02 11:51:35;;;;;;;13.05;6.72;;;1.80;99.90;;;;;;5075082;28;20139;-84
2023/12/02 11:54:42;;;;;;;12.48;5.95;;;1.80;99.90;;;;;;5064677;28;20056;-86
2023/12/02 11:57:28;;;;;;;13.23;6.00;;;1.80;99.90;;;;;;5066423;23;20508;-86
2023/12/02 12:00:09;;;;;;;13.57;6.70;;;1.80;99.90;;;;;;5051792;28;20542;-88
2023/12/02 12:03:23;;;;;;;15.05;6.13;;;1.80;99.90;;;;;;5051881;28;20080;-87
2023/12/02 12:06:00;;;;;;;10.75;5.68;;;1.90;99.90;;;;;;4975600;28;20050;-86
2023/12/02 12:08:59;;;;;;;13.82;6.20;;;1.90;99.90;;;;;;5050045;28;20061;-91
2023/12/02 12:11:28;;;;;;;11.50;6.55;;;1.90;99.90;;;;;;5052106;28;20066;-88
2023/12/02 12:13:55;;;;;;;14.48;7.68;;;1.90;99.90;;;;;;5051789;28;20044;-89
2023/12/02 12:16:20;;;;;;;12.80;6.82;;;2.00;99.90;;;;;;5052080;28;20053;-86
2023/12/02 12:18:46;;;;;;;11.10;5.60;;;2.00;99.90;;;;;;5053348;28;20057;-88
2023/12/02 12:21:11;;;;;;;10.45;5.75;;;2.10;99.90;;;;;;5051097;28;20049;-85
2023/12/02 12:23:37;;;;;;;10.07;5.65;;;2.00;99.90;;;;;;5051993;28;20127;-86
2023/12/02 12:26:03;;;;;;;12.63;6.05;;;2.10;99.90;;;;;;5052426;28;20053;-90
2023/12/02 12:28:31;;;;;;;12.20;5.85;;;2.10;99.90;;;;;;5051582;28;20064;-85
2023/12/02 12:30:57;;;;;;;9.93;5.88;;;2.10;99.90;;;;;;5052061;28;20052;-91
2023/12/02 12:33:22;;;;;;;9.65;4.80;;;2.10;99.90;;;;;;5051768;28;20408;-86
2023/12/02 12:35:48;;;;;;;12.65;6.00;;;2.10;99.90;;;;;;5051660;28;20052;-86
2023/12/02 12:38:17;;;;;;;10.48;5.18;;;2.20;99.90;;;;;;5051569;28;20048;-85
2023/12/02 12:40:44;;;;;;;9.55;4.97;;;2.20;99.90;;;;;;5051610;28;20051;-85
2023/12/02 12:43:13;;;;;;;10.40;5.20;;;2.20;99.90;;;;;;5052879;28;20503;-85